createdAt,value
2024-02-27T00:01:55.332Z,77.80
2024-02-27T00:04:24.199Z,77.80
2024-02-27T00:06:53.276Z,77.80
2024-02-27T00:09:22.213Z,77.80
2024-02-27T00:11:52.569Z,77.80
2024-02-27T00:14:21.568Z,77.80
2024-02-27T00:16:50.550Z,77.90
2024-02-27T00:19:19.792Z,77.90
2024-02-27T00:21:48.730Z,78.00
2024-02-27T00:24:17.655Z,78.00
2024-02-27T00:26:46.554Z,77.90
2024-02-27T00:29:19.661Z,77.90
2024-02-27T00:31:48.549Z,77.90
2024-02-27T00:34:17.922Z,77.90
2024-02-27T00:36:46.857Z,78.00
2024-02-27T00:39:15.821Z,78.10
2024-02-27T00:41:49.555Z,78.00
2024-02-27T00:44:22.244Z,78.00
2024-02-27T00:46:51.224Z,78.00
2024-02-27T00:49:20.438Z,78.90
2024-02-27T00:51:49.279Z,78.00
2024-02-27T00:54:18.468Z,78.10
2024-02-27T00:56:47.331Z,78.00
2024-02-27T00:59:16.262Z,78.00
2024-02-27T01:01:46.577Z,78.10
2024-02-27T01:04:15.623Z,78.00
2024-02-27T01:06:45.613Z,78.00
2024-02-27T01:09:14.531Z,78.00
2024-02-27T01:11:43.523Z,78.00
2024-02-27T01:14:12.425Z,77.90
2024-02-27T01:16:41.649Z,78.00
2024-02-27T01:19:12.020Z,78.00
2024-02-27T01:21:43.340Z,78.10
2024-02-27T01:24:12.704Z,78.10
2024-02-27T01:26:41.664Z,78.10
2024-02-27T01:29:10.549Z,78.00
2024-02-27T01:31:39.411Z,78.10
2024-02-27T01:34:08.482Z,78.00
2024-02-27T01:36:38.932Z,77.90
2024-02-27T01:39:09.486Z,77.90
2024-02-27T01:41:39.030Z,78.00
2024-02-27T01:44:08.454Z,78.00
2024-02-27T01:46:37.373Z,78.00
2024-02-27T01:49:06.498Z,78.10
2024-02-27T01:51:35.724Z,78.20
2024-02-27T01:54:06.661Z,78.20
2024-02-27T01:56:35.978Z,78.20
2024-02-27T01:59:04.904Z,78.20
2024-02-27T02:01:34.433Z,78.20
2024-02-27T02:04:04.115Z,78.40
2024-02-27T02:06:33.304Z,78.40
2024-02-27T02:09:02.276Z,78.40
2024-02-27T02:11:32.751Z,78.80
2024-02-27T02:14:01.903Z,78.30
2024-02-27T02:16:30.761Z,78.30
2024-02-27T02:18:59.839Z,78.40
2024-02-27T02:21:30.195Z,78.50
2024-02-27T02:24:01.145Z,78.50
2024-02-27T02:26:30.874Z,78.50
2024-02-27T02:28:59.818Z,78.50
2024-02-27T02:31:29.278Z,78.60
2024-02-27T02:33:58.309Z,78.50
2024-02-27T02:36:27.328Z,78.40
2024-02-27T02:38:58.401Z,78.50
2024-02-27T02:41:27.327Z,78.50
2024-02-27T02:43:56.220Z,78.50
2024-02-27T02:46:25.127Z,78.50
2024-02-27T02:48:54.570Z,78.40
2024-02-27T02:51:23.608Z,78.40
2024-02-27T02:53:52.566Z,78.40
2024-02-27T02:56:22.964Z,78.30
2024-02-27T02:58:50.986Z,78.30
2024-02-27T03:01:19.932Z,78.30
2024-02-27T03:03:48.862Z,78.30
2024-02-27T03:06:18.514Z,79.00
2024-02-27T03:08:49.117Z,78.30
2024-02-27T03:11:18.680Z,78.40
2024-02-27T03:13:49.057Z,78.40
2024-02-27T03:16:17.973Z,78.40
2024-02-27T03:18:47.026Z,78.40
2024-02-27T03:21:16.164Z,78.50
2024-02-27T03:23:45.061Z,78.50
2024-02-27T03:26:15.523Z,78.50
2024-02-27T03:28:44.626Z,78.60
2024-02-27T03:31:14.912Z,78.50
2024-02-27T03:33:44.013Z,78.60
2024-02-27T03:36:12.964Z,78.50
2024-02-27T03:38:42.010Z,78.40
2024-02-27T03:41:13.310Z,78.40
2024-02-27T03:43:42.493Z,78.30
2024-02-27T03:46:11.596Z,78.30
2024-02-27T03:48:42.321Z,78.30
2024-02-27T03:51:11.341Z,78.20
2024-02-27T03:53:40.372Z,78.20
2024-02-27T03:56:09.432Z,78.10
2024-02-27T03:58:38.454Z,78.10
2024-02-27T04:01:07.368Z,78.20
2024-02-27T04:03:36.452Z,78.20
2024-02-27T04:06:07.296Z,78.20
2024-02-27T04:08:36.224Z,78.10
2024-02-27T04:11:05.391Z,78.20
2024-02-27T04:13:36.237Z,78.20
2024-02-27T04:16:05.755Z,78.30
2024-02-27T04:18:34.961Z,78.30
2024-02-27T04:21:04.870Z,78.30
2024-02-27T04:23:35.293Z,78.30
2024-02-27T04:26:04.299Z,78.20
2024-02-27T04:28:33.334Z,78.20
2024-02-27T04:31:02.233Z,78.20
2024-02-27T04:33:31.381Z,78.20
2024-02-27T04:36:00.340Z,78.20
2024-02-27T04:38:29.212Z,78.20
2024-02-27T04:40:59.574Z,78.20
2024-02-27T04:43:28.401Z,78.10
2024-02-27T04:45:57.323Z,78.10
2024-02-27T04:48:26.322Z,78.20
2024-02-27T04:50:55.360Z,78.20
2024-02-27T04:53:24.239Z,78.20
2024-02-27T04:55:53.077Z,78.30
2024-02-27T04:58:23.443Z,78.40
2024-02-27T05:00:52.309Z,78.40
2024-02-27T05:03:21.336Z,78.40
2024-02-27T05:05:50.345Z,78.40
2024-02-27T05:08:19.227Z,78.30
2024-02-27T05:10:48.183Z,78.40
2024-02-27T05:13:17.081Z,78.40
2024-02-27T05:15:47.505Z,78.40
2024-02-27T05:18:16.577Z,78.50
2024-02-27T05:20:45.520Z,78.60
2024-02-27T05:23:14.462Z,78.70
2024-02-27T05:25:43.532Z,78.70
2024-02-27T05:28:12.511Z,78.70
2024-02-27T05:30:41.543Z,78.80
2024-02-27T05:33:12.102Z,78.80
2024-02-27T05:35:41.706Z,78.70
2024-02-27T05:38:10.579Z,78.70
2024-02-27T05:40:39.577Z,79.70
2024-02-27T05:43:09.418Z,78.70
2024-02-27T05:45:38.620Z,78.70
2024-02-27T05:48:08.007Z,78.80
2024-02-27T05:50:38.402Z,78.80
2024-02-27T05:53:07.334Z,78.90
2024-02-27T05:55:36.237Z,78.80
2024-02-27T05:58:05.252Z,78.90
2024-02-27T06:00:34.498Z,79.00
2024-02-27T06:03:03.504Z,79.00
2024-02-27T06:05:32.385Z,79.10
2024-02-27T06:08:02.661Z,79.10
2024-02-27T06:10:31.635Z,79.10
2024-02-27T06:13:00.579Z,79.20
2024-02-27T06:15:29.854Z,79.20
2024-02-27T06:17:58.940Z,79.20
2024-02-27T06:20:45.503Z,79.20
2024-02-27T06:23:15.822Z,79.20
2024-02-27T06:25:44.846Z,79.20
2024-02-27T06:28:13.714Z,79.30
2024-02-27T06:30:42.737Z,79.40
2024-02-27T06:33:11.786Z,79.30
2024-02-27T06:35:40.807Z,79.30
2024-02-27T06:38:09.743Z,79.30
2024-02-27T06:40:41.379Z,79.40
2024-02-27T06:43:10.375Z,79.50
2024-02-27T06:45:39.532Z,79.60
2024-02-27T06:48:10.984Z,79.70
2024-02-27T06:50:40.115Z,79.70
2024-02-27T06:53:09.783Z,79.70
2024-02-27T06:55:40.166Z,79.80
2024-02-27T06:58:09.193Z,79.80
2024-02-27T07:00:38.389Z,79.80
2024-02-27T07:03:07.763Z,79.80
2024-02-27T07:05:43.144Z,79.80
2024-02-27T07:08:21.544Z,79.80
2024-02-27T07:10:51.987Z,79.90
2024-02-27T07:13:20.933Z,80.00
2024-02-27T07:15:50.781Z,80.10
2024-02-27T07:18:20.762Z,80.10
2024-02-27T07:20:49.997Z,80.30
2024-02-27T07:23:18.946Z,80.30
2024-02-27T07:25:47.866Z,80.40
2024-02-27T07:28:24.313Z,80.50
2024-02-27T07:30:56.320Z,80.70
2024-02-27T07:33:26.551Z,80.90
2024-02-27T07:35:55.680Z,80.90
2024-02-27T07:38:24.591Z,80.90
2024-02-27T07:40:53.471Z,81.00
2024-02-27T07:43:23.688Z,81.00
2024-02-27T07:45:53.606Z,81.10
2024-02-27T07:48:23.958Z,81.30
2024-02-27T07:50:55.308Z,81.40
2024-02-27T07:53:24.510Z,81.60
2024-02-27T07:55:53.389Z,81.70
2024-02-27T07:58:23.708Z,81.80
2024-02-27T08:00:52.840Z,81.90
2024-02-27T08:03:22.431Z,82.00
2024-02-27T08:05:51.450Z,82.00
2024-02-27T08:08:23.581Z,82.20
2024-02-27T08:10:52.490Z,82.30
2024-02-27T08:13:23.987Z,82.30
2024-02-27T08:15:54.681Z,82.40
2024-02-27T08:18:25.122Z,82.50
2024-02-27T08:20:56.892Z,82.70
2024-02-27T08:23:27.291Z,83.50
2024-02-27T08:25:56.190Z,82.60
2024-02-27T08:28:25.049Z,82.60
2024-02-27T08:30:55.434Z,82.70
2024-02-27T08:33:24.530Z,82.70
2024-02-27T08:35:53.665Z,82.70
2024-02-27T08:38:23.014Z,82.70
2024-02-27T08:40:51.940Z,82.80
2024-02-27T08:43:20.889Z,82.90
2024-02-27T08:45:49.847Z,83.00
2024-02-27T08:48:20.379Z,83.90
2024-02-27T08:50:49.266Z,83.00
2024-02-27T08:53:18.150Z,83.00
2024-02-27T08:55:47.018Z,83.10
2024-02-27T08:58:16.017Z,83.20
2024-02-27T09:00:44.977Z,83.30
2024-02-27T09:03:14.221Z,83.30
2024-02-27T09:05:44.832Z,83.30
2024-02-27T09:08:14.661Z,83.40
2024-02-27T09:10:45.677Z,83.40
2024-02-27T09:13:14.942Z,83.40
2024-02-27T09:15:44.117Z,83.50
2024-02-27T09:18:14.273Z,83.50
2024-02-27T09:20:44.904Z,83.60
2024-02-27T09:23:14.244Z,83.70
2024-02-27T09:25:43.178Z,83.80
2024-02-27T09:28:14.427Z,83.70
2024-02-27T09:30:43.433Z,83.90
2024-02-27T09:33:12.564Z,84.00
2024-02-27T09:35:43.010Z,84.10
2024-02-27T09:38:13.405Z,84.10
2024-02-27T09:40:43.382Z,84.10
2024-02-27T09:43:16.175Z,84.10
2024-02-27T09:45:45.184Z,84.20
2024-02-27T09:48:15.443Z,84.20
2024-02-27T09:50:44.813Z,84.20
2024-02-27T09:53:15.187Z,84.20
2024-02-27T09:55:44.438Z,84.20
2024-02-27T09:58:13.376Z,84.10
2024-02-27T10:00:42.495Z,84.20
2024-02-27T10:03:11.840Z,84.40
2024-02-27T10:05:42.096Z,84.50
2024-02-27T10:08:13.257Z,84.60
2024-02-27T10:10:44.548Z,84.50
2024-02-27T10:13:13.514Z,84.50
2024-02-27T10:15:42.551Z,84.50
2024-02-27T10:18:11.859Z,84.50
2024-02-27T10:20:43.815Z,84.40
2024-02-27T10:23:12.864Z,84.40
2024-02-27T10:25:43.212Z,84.40
2024-02-27T10:28:12.205Z,84.40
2024-02-27T10:30:41.229Z,84.30
2024-02-27T10:33:15.191Z,85.00
2024-02-27T10:35:44.678Z,83.90
2024-02-27T10:38:17.394Z,83.70
2024-02-27T10:40:48.698Z,83.50
2024-02-27T10:43:17.591Z,83.40
2024-02-27T10:45:46.824Z,83.40
2024-02-27T10:48:15.925Z,83.40
2024-02-27T10:50:45.397Z,83.30
2024-02-27T10:53:15.202Z,83.20
2024-02-27T10:55:46.705Z,82.90
2024-02-27T10:58:17.213Z,82.80
2024-02-27T11:00:46.553Z,82.60
2024-02-27T11:03:15.957Z,82.50
2024-02-27T11:05:46.735Z,82.50
2024-02-27T11:08:17.259Z,82.50
2024-02-27T11:10:46.838Z,82.60
2024-02-27T11:13:19.136Z,82.80
2024-02-27T11:15:48.899Z,83.10
2024-02-27T11:18:20.802Z,83.10
2024-02-27T11:20:50.006Z,83.10
2024-02-27T11:23:20.602Z,83.00
2024-02-27T11:25:49.894Z,82.90
2024-02-27T11:28:21.143Z,82.90
2024-02-27T11:30:50.388Z,82.80
2024-02-27T11:33:21.323Z,82.90
2024-02-27T11:35:51.175Z,82.80
2024-02-27T11:38:20.565Z,82.80
2024-02-27T11:40:50.713Z,82.80
2024-02-27T11:43:21.990Z,82.80
2024-02-27T11:45:50.984Z,82.70
2024-02-27T11:48:40.093Z,82.70
2024-02-27T11:51:11.530Z,82.80
2024-02-27T11:53:40.560Z,83.80
2024-02-27T11:56:10.754Z,83.10
2024-02-27T11:58:41.147Z,83.40
2024-02-27T12:01:14.279Z,83.50
2024-02-27T12:03:43.519Z,83.40
2024-02-27T12:06:13.110Z,83.40
2024-02-27T12:08:46.358Z,83.40
2024-02-27T12:11:15.639Z,83.60
2024-02-27T12:13:48.089Z,83.70
2024-02-27T12:16:23.711Z,83.80
2024-02-27T12:18:52.794Z,83.80
2024-02-27T12:21:31.024Z,83.90
2024-02-27T12:24:12.746Z,83.90
2024-02-27T12:26:42.044Z,83.80
2024-02-27T12:29:12.399Z,84.00
2024-02-27T12:31:42.717Z,83.60
2024-02-27T12:34:14.160Z,83.60
2024-02-27T12:36:43.380Z,83.60
2024-02-27T12:39:13.441Z,83.70
2024-02-27T12:41:42.480Z,83.70
2024-02-27T12:44:12.804Z,83.80
2024-02-27T12:46:41.743Z,83.90
2024-02-27T12:49:11.277Z,84.00
2024-02-27T12:51:40.571Z,84.90
2024-02-27T12:54:09.661Z,84.10
2024-02-27T12:56:39.004Z,84.10
2024-02-27T12:59:09.568Z,84.30
2024-02-27T13:01:41.099Z,84.60
2024-02-27T13:04:10.534Z,84.80
2024-02-27T13:06:39.859Z,85.10
2024-02-27T13:09:09.028Z,85.20
2024-02-27T13:11:37.984Z,85.10
2024-02-27T13:14:07.682Z,85.10
2024-02-27T13:16:36.642Z,85.00
2024-02-27T13:19:07.114Z,84.90
2024-02-27T13:21:36.859Z,84.70
2024-02-27T13:24:06.113Z,84.60
2024-02-27T13:26:35.052Z,84.50
2024-02-27T13:29:04.319Z,84.50
2024-02-27T13:31:33.760Z,84.60
2024-02-27T13:34:03.337Z,84.50
2024-02-27T13:36:33.789Z,84.50
2024-02-27T13:39:04.908Z,84.50
2024-02-27T13:41:34.051Z,84.40
2024-02-27T13:44:03.019Z,84.10
2024-02-27T13:46:31.821Z,84.00
2024-02-27T13:49:00.840Z,83.90
2024-02-27T13:51:30.012Z,83.80
2024-02-27T13:54:00.431Z,83.70
2024-02-27T13:56:29.380Z,83.60
2024-02-27T13:58:58.308Z,83.60
2024-02-27T14:01:27.572Z,83.70
2024-02-27T14:03:56.573Z,83.70
2024-02-27T14:06:25.582Z,83.70
2024-02-27T14:08:54.611Z,83.60
2024-02-27T14:11:24.907Z,83.70
2024-02-27T14:13:58.206Z,83.70
2024-02-27T14:16:29.718Z,83.40
2024-02-27T14:18:58.679Z,83.30
2024-02-27T14:21:29.158Z,83.50
2024-02-27T14:23:58.202Z,83.40
2024-02-27T14:26:28.463Z,83.20
2024-02-27T14:28:58.211Z,83.20
2024-02-27T14:31:28.501Z,83.10
2024-02-27T14:33:57.584Z,82.50
2024-02-27T14:36:26.619Z,82.50
2024-02-27T14:38:55.532Z,82.60
2024-02-27T14:41:24.510Z,82.40
2024-02-27T14:43:55.084Z,82.20
2024-02-27T14:46:24.392Z,81.70
2024-02-27T14:48:54.797Z,81.80
2024-02-27T14:51:24.195Z,81.60
2024-02-27T14:53:53.127Z,81.40
2024-02-27T14:56:21.999Z,81.00
2024-02-27T14:58:52.265Z,80.80
2024-02-27T15:01:24.940Z,80.60
2024-02-27T15:03:57.854Z,80.30
2024-02-27T15:06:27.056Z,79.90
2024-02-27T15:08:56.084Z,79.90
2024-02-27T15:11:25.055Z,79.70
2024-02-27T15:13:53.965Z,79.30
2024-02-27T15:16:24.275Z,78.50
2024-02-27T15:18:53.909Z,78.50
2024-02-27T15:21:22.924Z,78.40
2024-02-27T15:23:52.077Z,78.20
2024-02-27T15:26:21.090Z,77.50
2024-02-27T15:28:50.085Z,77.60
2024-02-27T15:31:20.185Z,77.50
2024-02-27T15:33:50.620Z,77.80
2024-02-27T15:36:19.947Z,77.80
2024-02-27T15:38:49.113Z,77.70
2024-02-27T15:41:17.994Z,77.40
2024-02-27T15:43:46.864Z,77.40
2024-02-27T15:46:15.808Z,77.30
2024-02-27T15:48:44.878Z,77.20
2024-02-27T15:51:15.935Z,77.10
2024-02-27T15:53:45.509Z,77.10
2024-02-27T15:56:14.404Z,77.20
2024-02-27T15:58:43.246Z,77.00
2024-02-27T16:01:12.337Z,76.90
2024-02-27T16:03:47.675Z,77.60
2024-02-27T16:06:20.253Z,76.90
2024-02-27T16:08:49.287Z,77.00
2024-02-27T16:11:18.303Z,77.00
2024-02-27T16:13:47.250Z,77.00
2024-02-27T16:16:16.103Z,77.00
2024-02-27T16:18:45.475Z,77.00
2024-02-27T16:21:19.042Z,77.10
2024-02-27T16:23:48.212Z,77.00
2024-02-27T16:26:17.157Z,77.10
2024-02-27T16:28:46.169Z,77.20
2024-02-27T16:31:15.043Z,77.30
2024-02-27T16:33:44.032Z,77.20
2024-02-27T16:36:13.346Z,77.20
2024-02-27T16:38:43.663Z,77.20
2024-02-27T16:41:12.922Z,77.20
2024-02-27T16:43:41.858Z,77.20
2024-02-27T16:46:10.743Z,77.20
2024-02-27T16:48:39.707Z,77.30
2024-02-27T16:51:08.711Z,77.20
2024-02-27T16:53:37.613Z,77.20
2024-02-27T16:56:08.513Z,77.20
2024-02-27T16:58:37.454Z,77.20
2024-02-27T17:01:07.503Z,77.20
2024-02-27T17:03:38.650Z,77.40
2024-02-27T17:06:07.745Z,77.40
2024-02-27T17:08:36.651Z,77.40
2024-02-27T17:11:05.683Z,77.40
2024-02-27T17:13:36.199Z,77.50
2024-02-27T17:16:05.419Z,77.40
2024-02-27T17:18:35.060Z,77.40
2024-02-27T17:21:04.678Z,77.40
2024-02-27T17:23:33.646Z,77.50
2024-02-27T17:26:04.766Z,77.50
2024-02-27T17:28:35.035Z,77.40
2024-02-27T17:31:05.706Z,77.50
2024-02-27T17:33:35.877Z,77.40
2024-02-27T17:36:06.481Z,77.50
2024-02-27T17:38:35.513Z,77.50
2024-02-27T17:41:04.392Z,77.50
2024-02-27T17:43:33.238Z,77.60
2024-02-27T17:46:02.149Z,77.50
2024-02-27T17:48:33.991Z,77.50
2024-02-27T17:51:04.553Z,77.50
2024-02-27T17:53:33.459Z,77.50
2024-02-27T17:56:02.408Z,77.60
2024-02-27T17:58:31.211Z,77.70
2024-02-27T18:01:00.338Z,77.70
2024-02-27T18:03:29.350Z,77.70
2024-02-27T18:05:59.659Z,77.80
2024-02-27T18:08:29.066Z,77.80
2024-02-27T18:10:57.956Z,77.80
2024-02-27T18:13:26.956Z,77.90
2024-02-27T18:15:55.953Z,77.90
2024-02-27T18:18:24.951Z,77.90
2024-02-27T18:20:53.931Z,77.90
2024-02-27T18:23:28.829Z,77.80
2024-02-27T18:25:57.824Z,77.70
2024-02-27T18:28:26.812Z,77.80
2024-02-27T18:30:56.178Z,77.80
2024-02-27T18:33:25.447Z,78.10
2024-02-27T18:35:54.452Z,77.80
2024-02-27T18:38:26.836Z,77.80
2024-02-27T18:40:57.464Z,77.80
2024-02-27T18:43:26.457Z,77.80
2024-02-27T18:45:55.369Z,77.80
2024-02-27T18:48:24.503Z,77.80
2024-02-27T18:50:53.399Z,77.80
2024-02-27T18:53:22.298Z,77.90
2024-02-27T18:55:53.801Z,77.90
2024-02-27T18:58:22.779Z,77.90
2024-02-27T19:00:51.721Z,77.80
2024-02-27T19:03:20.705Z,77.80
2024-02-27T19:05:49.614Z,77.80
2024-02-27T19:08:20.014Z,77.80
2024-02-27T19:10:50.483Z,77.80
2024-02-27T19:13:21.264Z,77.80
2024-02-27T19:15:50.541Z,77.80
2024-02-27T19:18:19.821Z,77.90
2024-02-27T19:20:48.771Z,77.90
2024-02-27T19:23:18.159Z,77.90
2024-02-27T19:25:47.085Z,77.90
2024-02-27T19:28:16.254Z,77.90
2024-02-27T19:30:47.694Z,77.90
2024-02-27T19:33:16.835Z,77.90
2024-02-27T19:35:45.715Z,77.90
2024-02-27T19:38:19.247Z,77.80
2024-02-27T19:40:48.868Z,77.90
2024-02-27T19:43:17.926Z,77.80
2024-02-27T19:45:48.412Z,77.80
2024-02-27T19:48:17.815Z,77.90
2024-02-27T19:50:46.756Z,77.90
2024-02-27T19:53:15.616Z,77.90
2024-02-27T19:55:44.558Z,78.80
2024-02-27T19:58:13.463Z,78.80
2024-02-27T20:00:42.416Z,77.90
2024-02-27T20:03:12.820Z,77.90
2024-02-27T20:05:42.299Z,77.80
2024-02-27T20:08:11.205Z,77.90
2024-02-27T20:10:40.432Z,77.80
2024-02-27T20:13:09.320Z,77.90
2024-02-27T20:15:38.344Z,77.90
2024-02-27T20:18:09.471Z,78.70
2024-02-27T20:20:40.724Z,77.90
2024-02-27T20:23:09.763Z,77.90
2024-02-27T20:25:38.719Z,77.90
2024-02-27T20:28:07.856Z,77.90
2024-02-27T20:30:36.878Z,77.90
2024-02-27T20:33:06.938Z,77.90
2024-02-27T20:35:36.090Z,77.90
2024-02-27T20:38:06.867Z,78.10
2024-02-27T20:40:36.180Z,78.20
2024-02-27T20:43:05.252Z,78.10
2024-02-27T20:45:34.263Z,78.20
2024-02-27T20:48:04.012Z,78.10
2024-02-27T20:50:32.985Z,78.10
2024-02-27T20:53:01.890Z,78.10
2024-02-27T20:55:32.127Z,78.10
2024-02-27T20:58:01.009Z,78.10
2024-02-27T21:00:30.015Z,78.10
2024-02-27T21:02:58.971Z,78.10
2024-02-27T21:05:27.921Z,78.10
2024-02-27T21:07:59.457Z,78.90
2024-02-27T21:10:29.469Z,78.00
2024-02-27T21:12:59.962Z,78.10
2024-02-27T21:15:29.035Z,78.00
2024-02-27T21:17:57.894Z,78.00
2024-02-27T21:20:26.898Z,78.00
2024-02-27T21:22:55.886Z,78.90
2024-02-27T21:25:24.739Z,78.00
2024-02-27T21:27:56.599Z,78.00
2024-02-27T21:30:27.285Z,78.00
2024-02-27T21:32:56.362Z,78.00
2024-02-27T21:35:28.168Z,78.10
2024-02-27T21:37:57.146Z,78.10
2024-02-27T21:40:26.000Z,78.20
2024-02-27T21:42:54.924Z,78.10
2024-02-27T21:45:24.017Z,78.20
2024-02-27T21:47:54.894Z,78.10
2024-02-27T21:50:23.843Z,78.10
2024-02-27T21:52:52.722Z,78.10
2024-02-27T21:55:21.752Z,78.00
2024-02-27T21:57:51.283Z,78.10
2024-02-27T22:00:21.948Z,78.00
2024-02-27T22:02:50.839Z,78.00
2024-02-27T22:05:22.486Z,78.00
2024-02-27T22:07:51.397Z,78.00
2024-02-27T22:10:20.861Z,77.90
2024-02-27T22:12:49.843Z,77.90
2024-02-27T22:15:19.011Z,77.90
2024-02-27T22:17:47.997Z,78.00
2024-02-27T22:20:16.890Z,77.90
2024-02-27T22:22:47.223Z,78.00
2024-02-27T22:25:16.729Z,77.90
2024-02-27T22:27:45.630Z,78.00
2024-02-27T22:30:16.008Z,77.90
2024-02-27T22:32:44.090Z,77.90
2024-02-27T22:35:13.066Z,77.90
2024-02-27T22:37:42.077Z,78.00
2024-02-27T22:40:12.707Z,78.00
2024-02-27T22:42:41.699Z,78.10
2024-02-27T22:45:10.954Z,78.10
2024-02-27T22:47:39.960Z,78.10
2024-02-27T22:50:09.872Z,78.10
2024-02-27T22:52:39.411Z,78.20
2024-02-27T22:55:08.803Z,78.20
2024-02-27T22:57:39.101Z,78.20
2024-02-27T23:00:08.870Z,78.20
2024-02-27T23:02:38.135Z,78.20
2024-02-27T23:05:07.171Z,78.20
2024-02-27T23:07:36.209Z,78.10
2024-02-27T23:10:07.517Z,78.10
2024-02-27T23:12:38.226Z,78.10
2024-02-27T23:15:09.289Z,78.10
2024-02-27T23:17:38.346Z,78.00
2024-02-27T23:20:07.967Z,78.90
2024-02-27T23:22:36.899Z,78.00
2024-02-27T23:25:06.151Z,78.10
2024-02-27T23:27:35.154Z,78.10
2024-02-27T23:30:04.431Z,78.10
2024-02-27T23:32:34.788Z,78.10
2024-02-27T23:35:04.280Z,78.10
2024-02-27T23:37:33.215Z,78.10
2024-02-27T23:40:02.102Z,78.20
2024-02-27T23:42:31.042Z,78.20
2024-02-27T23:45:00.039Z,78.20
2024-02-27T23:47:30.269Z,78.10
2024-02-27T23:50:01.216Z,78.20
2024-02-27T23:52:30.158Z,78.10
2024-02-27T23:54:59.080Z,78.20
2024-02-27T23:57:28.017Z,78.10
2024-02-27T23:59:56.888Z,78.00
